createdAt,value
2019-06-08T00:02:09.760Z,14.40
2019-06-08T00:04:40.079Z,14.30
2019-06-08T00:07:10.861Z,14.30
2019-06-08T00:09:41.242Z,14.30
2019-06-08T00:12:12.956Z,14.30
2019-06-08T00:14:44.458Z,14.20
2019-06-08T00:17:31.522Z,14.20
2019-06-08T00:19:46.869Z,14.20
2019-06-08T00:22:17.694Z,14.20
2019-06-08T00:24:48.922Z,14.10
2019-06-08T00:27:20.195Z,14.10
2019-06-08T00:29:51.488Z,14.20
2019-06-08T00:32:22.597Z,14.30
2019-06-08T00:34:53.357Z,14.40
2019-06-08T00:37:24.903Z,14.40
2019-06-08T00:39:56.742Z,14.50
2019-06-08T00:42:26.964Z,14.60
2019-06-08T00:44:57.724Z,14.60
2019-06-08T00:47:46.372Z,14.70
2019-06-08T00:50:04.888Z,14.70
2019-06-08T00:52:35.169Z,14.60
2019-06-08T00:55:05.657Z,14.50
2019-06-08T00:57:36.791Z,14.40
2019-06-08T01:00:11.362Z,14.30
2019-06-08T01:02:46.582Z,14.30
2019-06-08T01:05:22.162Z,14.30
2019-06-08T01:07:53.091Z,14.30
2019-06-08T01:10:23.822Z,14.40
2019-06-08T01:12:54.646Z,14.50
2019-06-08T01:15:32.212Z,14.60
2019-06-08T01:18:03.455Z,14.80
2019-06-08T01:20:30.928Z,14.80
2019-06-08T01:23:01.166Z,14.80
2019-06-08T01:25:32.190Z,14.90
2019-06-08T01:28:02.434Z,15.00
2019-06-08T01:30:32.779Z,15.00
2019-06-08T01:33:03.473Z,15.00
2019-06-08T01:35:34.485Z,15.10
2019-06-08T01:38:05.260Z,15.10
2019-06-08T01:40:36.109Z,15.20
2019-06-08T01:43:07.117Z,15.20
2019-06-08T01:45:37.659Z,15.20
2019-06-08T01:48:19.439Z,15.30
2019-06-08T01:50:40.051Z,15.20
2019-06-08T01:53:10.481Z,15.30
2019-06-08T01:55:41.021Z,15.30
2019-06-08T01:58:11.529Z,15.30
2019-06-08T02:00:42.018Z,15.20
2019-06-08T02:03:12.766Z,15.20
2019-06-08T02:05:43.481Z,15.20
2019-06-08T02:08:14.190Z,15.20
2019-06-08T02:10:44.680Z,15.20
2019-06-08T02:13:14.958Z,15.20
2019-06-08T02:15:46.420Z,15.30
2019-06-08T02:18:17.376Z,15.30
2019-06-08T02:20:48.085Z,15.30
2019-06-08T02:23:18.667Z,15.30
2019-06-08T02:25:49.196Z,15.30
2019-06-08T02:28:19.867Z,15.40
2019-06-08T02:30:51.334Z,15.30
2019-06-08T02:33:21.541Z,15.30
2019-06-08T02:35:53.234Z,15.30
2019-06-08T02:38:23.840Z,15.20
2019-06-08T02:40:54.071Z,15.10
2019-06-08T02:43:24.689Z,15.10
2019-06-08T02:45:55.470Z,15.10
2019-06-08T02:48:25.623Z,15.10
2019-06-08T02:50:57.174Z,15.20
2019-06-08T02:53:29.462Z,15.20
2019-06-08T02:56:01.234Z,15.20
2019-06-08T02:58:36.059Z,15.20
2019-06-08T03:01:05.669Z,15.20
2019-06-08T03:03:38.440Z,15.20
2019-06-08T03:06:09.155Z,15.20
2019-06-08T03:08:42.093Z,15.20
2019-06-08T03:11:13.627Z,15.20
2019-06-08T03:13:47.377Z,15.20
2019-06-08T03:16:18.117Z,15.20
2019-06-08T03:18:48.858Z,15.20
2019-06-08T03:21:19.185Z,15.20
2019-06-08T03:23:50.174Z,15.10
2019-06-08T03:26:20.960Z,15.20
2019-06-08T03:28:51.358Z,15.20
2019-06-08T03:31:21.672Z,15.20
2019-06-08T03:33:55.872Z,15.20
2019-06-08T03:36:24.116Z,15.30
2019-06-08T03:38:54.952Z,15.30
2019-06-08T03:41:25.253Z,15.30
2019-06-08T03:43:55.817Z,15.30
2019-06-08T03:46:26.535Z,15.40
2019-06-08T03:48:57.886Z,15.30
2019-06-08T03:51:29.052Z,15.30
2019-06-08T03:54:00.008Z,15.30
2019-06-08T03:56:30.697Z,15.40
2019-06-08T03:59:01.104Z,15.40
2019-06-08T04:01:31.777Z,15.40
2019-06-08T04:04:02.133Z,15.30
2019-06-08T04:06:32.891Z,15.40
2019-06-08T04:09:05.246Z,15.40
2019-06-08T04:11:37.678Z,15.40
2019-06-08T04:14:08.113Z,15.40
2019-06-08T04:16:40.163Z,15.40
2019-06-08T04:19:10.847Z,15.40
2019-06-08T04:21:41.818Z,15.50
2019-06-08T04:24:12.440Z,15.50
2019-06-08T04:26:45.506Z,15.50
2019-06-08T04:29:17.488Z,15.50
2019-06-08T04:31:47.517Z,15.40
2019-06-08T04:34:18.162Z,15.50
2019-06-08T04:36:50.353Z,15.50
2019-06-08T04:39:20.709Z,15.40
2019-06-08T04:41:51.058Z,15.50
2019-06-08T04:44:22.013Z,15.50
2019-06-08T04:46:52.229Z,15.50
2019-06-08T04:49:22.413Z,15.40
2019-06-08T04:51:53.150Z,15.30
2019-06-08T04:54:23.698Z,15.20
2019-06-08T04:56:54.355Z,15.20
2019-06-08T04:59:24.912Z,15.20
2019-06-08T05:01:55.880Z,15.20
2019-06-08T05:04:26.032Z,15.20
2019-06-08T05:06:56.368Z,15.20
2019-06-08T05:09:27.157Z,15.20
2019-06-08T05:11:58.218Z,15.20
2019-06-08T05:14:28.542Z,15.30
2019-06-08T05:16:59.098Z,15.30
2019-06-08T05:19:29.342Z,15.30
2019-06-08T05:22:00.444Z,15.40
2019-06-08T05:24:31.258Z,15.40
2019-06-08T05:27:01.947Z,15.50
2019-06-08T05:29:32.188Z,15.60
2019-06-08T05:32:03.046Z,15.50
2019-06-08T05:34:33.274Z,15.60
2019-06-08T05:37:03.594Z,15.60
2019-06-08T05:39:33.790Z,15.60
2019-06-08T05:42:04.556Z,15.60
2019-06-08T05:44:34.954Z,15.60
2019-06-08T05:47:05.652Z,15.50
2019-06-08T05:49:36.098Z,15.50
2019-06-08T05:52:06.557Z,15.50
2019-06-08T05:54:37.062Z,15.50
2019-06-08T05:57:08.138Z,15.60
2019-06-08T05:59:38.368Z,15.60
2019-06-08T06:02:09.218Z,15.50
2019-06-08T06:04:40.913Z,15.50
2019-06-08T06:07:11.408Z,15.50
2019-06-08T06:09:45.141Z,15.50
2019-06-08T06:12:17.535Z,15.50
2019-06-08T06:14:49.085Z,15.60
2019-06-08T06:17:21.196Z,15.60
2019-06-08T06:19:51.620Z,15.70
2019-06-08T06:22:23.206Z,15.60
2019-06-08T06:24:54.001Z,15.70
2019-06-08T06:27:24.998Z,15.60
2019-06-08T06:29:55.496Z,15.70
2019-06-08T06:32:26.040Z,15.70
2019-06-08T06:34:56.938Z,15.70
2019-06-08T06:37:27.518Z,15.70
2019-06-08T06:39:58.115Z,15.80
2019-06-08T06:42:28.384Z,15.90
2019-06-08T06:44:59.131Z,15.90
2019-06-08T06:47:29.998Z,15.90
2019-06-08T06:50:00.305Z,16.00
2019-06-08T06:52:30.809Z,16.00
2019-06-08T06:55:01.261Z,16.00
2019-06-08T06:57:36.036Z,16.00
2019-06-08T07:00:04.976Z,16.00
2019-06-08T07:02:35.390Z,16.00
2019-06-08T07:05:06.719Z,16.10
2019-06-08T07:07:37.319Z,16.20
2019-06-08T07:10:08.750Z,16.20
2019-06-08T07:12:39.448Z,16.40
2019-06-08T07:15:09.878Z,16.50
2019-06-08T07:17:40.642Z,16.60
2019-06-08T07:20:10.887Z,16.70
2019-06-08T07:22:41.107Z,16.80
2019-06-08T07:25:13.051Z,16.90
2019-06-08T07:27:43.694Z,17.10
2019-06-08T07:30:14.987Z,17.30
2019-06-08T07:32:46.510Z,17.50
2019-06-08T07:35:18.373Z,17.60
2019-06-08T07:37:50.126Z,17.60
2019-06-08T07:40:21.197Z,17.60
2019-06-08T07:42:53.387Z,17.70
2019-06-08T07:45:24.639Z,17.70
2019-06-08T07:47:56.083Z,17.60
2019-06-08T07:50:26.780Z,17.50
2019-06-08T07:52:58.862Z,17.40
2019-06-08T07:55:29.544Z,17.50
2019-06-08T07:58:00.345Z,17.60
2019-06-08T08:00:31.003Z,17.70
2019-06-08T08:03:01.998Z,17.70
2019-06-08T08:05:33.582Z,17.80
2019-06-08T08:08:04.118Z,17.90
2019-06-08T08:10:34.898Z,18.00
2019-06-08T08:13:05.190Z,18.20
2019-06-08T08:15:35.755Z,18.30
2019-06-08T08:18:06.093Z,18.30
2019-06-08T08:20:36.912Z,18.20
2019-06-08T08:23:09.176Z,18.20
2019-06-08T08:25:41.472Z,18.20
2019-06-08T08:28:11.991Z,18.20
2019-06-08T08:30:42.630Z,18.30
2019-06-08T08:33:12.827Z,18.40
2019-06-08T08:35:43.174Z,18.60
2019-06-08T08:38:14.307Z,18.80
2019-06-08T08:40:44.483Z,19.20
2019-06-08T08:43:17.803Z,19.40
2019-06-08T08:45:48.107Z,19.60
2019-06-08T08:48:25.272Z,19.60
2019-06-08T08:50:51.325Z,19.90
2019-06-08T08:53:22.965Z,20.20
2019-06-08T08:55:54.256Z,20.20
2019-06-08T08:58:24.949Z,20.40
2019-06-08T09:00:55.340Z,20.30
2019-06-08T09:03:33.107Z,20.30
2019-06-08T09:06:01.889Z,20.20
2019-06-08T09:08:30.395Z,19.90
2019-06-08T09:11:03.563Z,20.00
2019-06-08T09:13:33.506Z,20.20
2019-06-08T09:16:04.401Z,20.50
2019-06-08T09:18:37.360Z,20.20
2019-06-08T09:21:08.392Z,20.60
2019-06-08T09:23:38.950Z,20.50
2019-06-08T09:26:12.828Z,20.30
2019-06-08T09:28:42.736Z,20.00
2019-06-08T09:31:14.240Z,19.70
2019-06-08T09:33:55.170Z,19.80
2019-06-08T09:36:17.821Z,19.90
2019-06-08T09:38:53.048Z,19.90
2019-06-08T09:41:21.859Z,19.70
2019-06-08T09:43:53.935Z,19.50
2019-06-08T09:46:27.680Z,19.60
2019-06-08T09:48:59.477Z,19.80
2019-06-08T09:51:30.624Z,19.80
2019-06-08T09:54:04.081Z,19.70
2019-06-08T09:56:34.845Z,20.00
2019-06-08T09:59:10.017Z,20.10
2019-06-08T10:01:43.123Z,20.40
2019-06-08T10:04:14.288Z,20.70
2019-06-08T10:06:47.816Z,20.50
2019-06-08T10:09:18.911Z,20.70
2019-06-08T10:11:50.261Z,20.80
2019-06-08T10:14:21.533Z,20.70
2019-06-08T10:16:52.518Z,20.80
2019-06-08T10:19:27.369Z,20.80
2019-06-08T10:21:58.904Z,20.80
2019-06-08T10:24:29.384Z,21.00
2019-06-08T10:27:01.377Z,20.90
2019-06-08T10:29:32.717Z,21.00
2019-06-08T10:32:06.394Z,21.40
2019-06-08T10:34:38.639Z,21.40
2019-06-08T10:37:13.204Z,21.70
2019-06-08T10:39:43.917Z,21.90
2019-06-08T10:42:14.926Z,21.70
2019-06-08T10:44:45.597Z,21.70
2019-06-08T10:47:16.924Z,21.60
2019-06-08T10:49:49.007Z,21.60
2019-06-08T10:52:20.314Z,21.60
2019-06-08T10:54:52.233Z,21.00
2019-06-08T10:57:23.326Z,20.90
2019-06-08T10:59:54.475Z,20.80
2019-06-08T11:02:25.016Z,20.80
2019-06-08T11:04:58.764Z,20.70
2019-06-08T11:07:29.612Z,21.10
2019-06-08T11:10:00.268Z,21.50
2019-06-08T11:12:33.070Z,21.70
2019-06-08T11:15:04.794Z,21.60
2019-06-08T11:17:37.885Z,21.40
2019-06-08T11:20:11.847Z,21.20
2019-06-08T11:22:40.260Z,21.30
2019-06-08T11:25:16.010Z,21.00
2019-06-08T11:27:43.629Z,21.00
2019-06-08T11:30:23.733Z,21.30
2019-06-08T11:32:48.033Z,21.60
2019-06-08T11:35:19.049Z,21.40
2019-06-08T11:37:51.928Z,21.20
2019-06-08T11:40:22.307Z,21.00
2019-06-08T11:42:52.577Z,20.90
2019-06-08T11:45:23.264Z,21.10
2019-06-08T11:47:53.591Z,20.70
2019-06-08T11:50:41.548Z,20.80
2019-06-08T11:53:13.633Z,21.00
2019-06-08T11:55:42.028Z,21.00
2019-06-08T11:58:13.853Z,21.00
2019-06-08T12:01:11.602Z,21.00
2019-06-08T12:03:40.873Z,20.60
2019-06-08T12:06:14.135Z,20.60
2019-06-08T12:08:44.391Z,20.40
2019-06-08T12:11:18.845Z,20.70
2019-06-08T12:13:47.377Z,20.90
2019-06-08T12:16:21.468Z,21.10
2019-06-08T12:18:49.982Z,21.30
2019-06-08T12:21:20.799Z,21.40
2019-06-08T12:23:51.438Z,21.70
2019-06-08T12:26:21.979Z,22.00
2019-06-08T12:28:53.547Z,22.00
2019-06-08T12:31:23.656Z,22.00
2019-06-08T12:33:54.801Z,21.90
2019-06-08T12:36:25.278Z,21.90
2019-06-08T12:38:55.512Z,21.30
2019-06-08T12:41:31.173Z,21.30
2019-06-08T12:43:59.161Z,21.40
2019-06-08T12:46:29.564Z,21.00
2019-06-08T12:48:59.884Z,20.90
2019-06-08T12:51:29.988Z,21.10
2019-06-08T12:54:00.500Z,21.30
2019-06-08T12:56:30.620Z,21.20
2019-06-08T12:59:01.464Z,21.20
2019-06-08T13:01:31.949Z,21.30
2019-06-08T13:04:02.429Z,21.60
2019-06-08T13:06:32.913Z,21.80
2019-06-08T13:09:03.412Z,21.60
2019-06-08T13:11:33.969Z,21.10
2019-06-08T13:14:04.135Z,21.00
2019-06-08T13:16:34.780Z,21.10
2019-06-08T13:19:05.150Z,21.00
2019-06-08T13:21:38.450Z,21.20
2019-06-08T13:24:10.180Z,21.50
2019-06-08T13:26:40.987Z,21.90
2019-06-08T13:29:12.545Z,22.30
2019-06-08T13:31:43.510Z,22.60
2019-06-08T13:34:15.670Z,22.80
2019-06-08T13:36:48.488Z,22.80
2019-06-08T13:39:21.233Z,22.80
2019-06-08T13:41:52.109Z,22.80
2019-06-08T13:44:22.859Z,23.00
2019-06-08T13:46:53.442Z,23.10
2019-06-08T13:49:27.033Z,23.00
2019-06-08T13:51:58.178Z,22.40
2019-06-08T13:54:31.279Z,22.00
2019-06-08T13:57:01.845Z,21.80
2019-06-08T13:59:33.635Z,21.70
2019-06-08T14:02:04.324Z,21.70
2019-06-08T14:04:34.766Z,21.90
2019-06-08T14:07:07.604Z,22.10
2019-06-08T14:09:38.285Z,22.30
2019-06-08T14:12:08.596Z,22.30
2019-06-08T14:14:39.947Z,22.30
2019-06-08T14:17:10.705Z,22.30
2019-06-08T14:19:40.921Z,22.30
2019-06-08T14:22:11.199Z,22.40
2019-06-08T14:24:41.384Z,22.40
2019-06-08T14:27:12.388Z,22.20
2019-06-08T14:29:43.068Z,22.20
2019-06-08T14:32:13.710Z,22.00
2019-06-08T14:34:43.949Z,22.10
2019-06-08T14:37:14.135Z,22.20
2019-06-08T14:39:44.779Z,22.00
2019-06-08T14:42:19.830Z,21.80
2019-06-08T14:44:47.810Z,21.70
2019-06-08T14:47:18.770Z,21.80
2019-06-08T14:49:49.052Z,21.90
2019-06-08T14:52:21.873Z,21.90
2019-06-08T14:54:51.626Z,21.80
2019-06-08T14:57:23.357Z,21.80
2019-06-08T14:59:56.410Z,21.70
2019-06-08T15:02:28.163Z,21.60
2019-06-08T15:04:58.397Z,21.70
2019-06-08T15:07:32.558Z,21.80
2019-06-08T15:10:02.057Z,21.70
2019-06-08T15:12:32.858Z,21.60
2019-06-08T15:15:03.264Z,21.70
2019-06-08T15:17:33.860Z,21.70
2019-06-08T15:20:05.928Z,21.80
2019-06-08T15:22:38.754Z,21.90
2019-06-08T15:25:11.083Z,22.10
2019-06-08T15:27:42.406Z,22.10
2019-06-08T15:30:17.857Z,22.10
2019-06-08T15:32:48.716Z,22.00
2019-06-08T15:35:19.615Z,22.10
2019-06-08T15:37:53.279Z,22.20
2019-06-08T15:40:25.442Z,22.20
2019-06-08T15:42:58.579Z,22.30
2019-06-08T15:45:31.301Z,22.30
2019-06-08T15:48:01.161Z,22.30
2019-06-08T15:50:32.622Z,22.30
2019-06-08T15:53:03.866Z,22.40
2019-06-08T15:55:34.549Z,22.50
2019-06-08T15:58:04.800Z,22.50
2019-06-08T16:00:35.451Z,22.60
2019-06-08T16:03:05.728Z,22.60
2019-06-08T16:05:37.370Z,22.50
2019-06-08T16:08:08.817Z,22.60
2019-06-08T16:10:40.138Z,22.50
2019-06-08T16:13:10.339Z,22.60
2019-06-08T16:15:40.520Z,22.90
2019-06-08T16:18:11.273Z,22.90
2019-06-08T16:20:42.211Z,22.90
2019-06-08T16:23:12.640Z,23.00
2019-06-08T16:25:43.372Z,23.10
2019-06-08T16:28:13.737Z,23.20
2019-06-08T16:30:44.475Z,23.20
2019-06-08T16:33:14.657Z,23.20
2019-06-08T16:35:44.939Z,23.20
2019-06-08T16:38:16.127Z,23.40
2019-06-08T16:40:49.184Z,23.50
2019-06-08T16:43:19.879Z,23.60
2019-06-08T16:45:50.913Z,23.70
2019-06-08T16:48:22.259Z,23.80
2019-06-08T16:50:53.407Z,23.90
2019-06-08T16:53:25.109Z,24.00
2019-06-08T16:55:56.463Z,24.00
2019-06-08T16:58:27.852Z,24.00
2019-06-08T17:00:58.119Z,23.90
2019-06-08T17:03:28.766Z,23.80
2019-06-08T17:05:59.107Z,23.70
2019-06-08T17:08:29.482Z,23.90
2019-06-08T17:10:59.745Z,23.90
2019-06-08T17:13:30.134Z,23.90
2019-06-08T17:16:00.946Z,24.00
2019-06-08T17:18:32.227Z,24.10
2019-06-08T17:21:02.975Z,24.20
2019-06-08T17:23:34.446Z,24.10
2019-06-08T17:26:04.999Z,24.00
2019-06-08T17:28:35.371Z,24.00
2019-06-08T17:31:06.206Z,24.10
2019-06-08T17:33:37.267Z,24.10
2019-06-08T17:36:09.037Z,24.00
2019-06-08T17:38:39.873Z,24.10
2019-06-08T17:41:10.413Z,24.10
2019-06-08T17:43:40.758Z,24.00
2019-06-08T17:46:10.953Z,24.00
2019-06-08T17:48:43.118Z,23.90
2019-06-08T17:51:14.956Z,23.90
2019-06-08T17:53:46.276Z,23.90
2019-06-08T17:56:17.432Z,23.90
2019-06-08T17:58:47.811Z,23.90
2019-06-08T18:01:17.986Z,23.70
2019-06-08T18:03:48.367Z,23.60
2019-06-08T18:06:18.771Z,23.40
2019-06-08T18:08:49.051Z,23.40
2019-06-08T18:11:19.459Z,23.40
2019-06-08T18:13:50.570Z,23.40
2019-06-08T18:16:22.058Z,23.30
2019-06-08T18:18:53.302Z,23.00
2019-06-08T18:21:24.244Z,22.60
2019-06-08T18:23:57.193Z,22.40
2019-06-08T18:26:28.277Z,22.30
2019-06-08T18:28:58.330Z,22.10
2019-06-08T18:31:28.971Z,21.90
2019-06-08T18:34:01.991Z,21.80
2019-06-08T18:36:31.274Z,21.70
2019-06-08T18:39:01.851Z,21.50
2019-06-08T18:41:34.999Z,21.30
2019-06-08T18:44:08.273Z,21.10
2019-06-08T18:46:39.358Z,20.90
2019-06-08T18:49:10.977Z,20.70
2019-06-08T18:51:42.806Z,20.40
2019-06-08T18:54:14.855Z,20.20
2019-06-08T18:56:48.690Z,20.00
2019-06-08T18:59:19.000Z,19.90
2019-06-08T19:01:49.870Z,19.80
2019-06-08T19:04:21.003Z,19.60
2019-06-08T19:06:51.341Z,19.50
2019-06-08T19:09:25.166Z,19.40
2019-06-08T19:11:57.445Z,19.30
2019-06-08T19:14:29.588Z,19.10
2019-06-08T19:17:00.736Z,19.00
2019-06-08T19:19:32.583Z,18.80
2019-06-08T19:22:03.745Z,18.80
2019-06-08T19:24:35.841Z,18.70
2019-06-08T19:27:08.260Z,18.60
2019-06-08T19:29:42.136Z,18.50
2019-06-08T19:32:17.058Z,18.40
2019-06-08T19:34:52.324Z,18.30
2019-06-08T19:37:17.611Z,18.20
2019-06-08T19:39:52.930Z,18.10
2019-06-08T19:42:35.905Z,18.10
2019-06-08T19:45:04.912Z,18.00
2019-06-08T19:47:28.082Z,17.90
2019-06-08T19:49:58.804Z,17.80
2019-06-08T19:52:29.103Z,17.70
2019-06-08T19:54:59.436Z,17.70
2019-06-08T19:57:29.590Z,17.60
2019-06-08T20:00:00.396Z,17.50
2019-06-08T20:02:31.928Z,17.50
2019-06-08T20:05:02.313Z,17.40
2019-06-08T20:07:32.605Z,17.20
2019-06-08T20:10:03.726Z,17.10
2019-06-08T20:12:37.010Z,17.00
2019-06-08T20:15:08.594Z,17.00
2019-06-08T20:17:39.496Z,16.90
2019-06-08T20:20:11.314Z,16.80
2019-06-08T20:22:43.797Z,16.80
2019-06-08T20:25:17.848Z,16.70
2019-06-08T20:27:51.344Z,16.70
2019-06-08T20:30:20.991Z,16.70
2019-06-08T20:32:53.119Z,16.60
2019-06-08T20:35:23.511Z,16.50
2019-06-08T20:37:54.005Z,16.50
2019-06-08T20:40:24.453Z,16.50
2019-06-08T20:42:57.571Z,16.40
2019-06-08T20:45:28.768Z,16.40
2019-06-08T20:47:59.899Z,16.50
2019-06-08T20:50:30.469Z,16.50
2019-06-08T20:53:03.101Z,16.20
2019-06-08T20:55:33.565Z,16.10
2019-06-08T20:58:04.063Z,16.10
2019-06-08T21:00:34.645Z,16.00
2019-06-08T21:03:07.920Z,16.00
2019-06-08T21:05:37.391Z,16.10
2019-06-08T21:08:08.416Z,16.20
2019-06-08T21:10:39.301Z,16.10
2019-06-08T21:13:09.803Z,16.00
2019-06-08T21:15:40.363Z,15.90
2019-06-08T21:18:10.691Z,15.90
2019-06-08T21:20:41.321Z,15.90
2019-06-08T21:23:12.075Z,15.90
2019-06-08T21:25:42.555Z,15.80
2019-06-08T21:28:13.153Z,15.70
2019-06-08T21:30:43.798Z,15.40
2019-06-08T21:33:14.383Z,15.20
2019-06-08T21:35:44.778Z,15.10
2019-06-08T21:38:23.280Z,15.00
2019-06-08T21:40:49.516Z,14.80
2019-06-08T21:43:19.700Z,14.70
2019-06-08T21:45:51.956Z,14.60
2019-06-08T21:48:23.119Z,14.60
2019-06-08T21:50:55.025Z,14.50
2019-06-08T21:53:27.414Z,14.50
2019-06-08T21:55:58.439Z,14.50
2019-06-08T21:58:29.087Z,14.40
2019-06-08T22:01:01.129Z,14.30
2019-06-08T22:03:34.149Z,14.30
2019-06-08T22:06:04.478Z,14.20
2019-06-08T22:08:34.676Z,14.10
2019-06-08T22:11:05.018Z,14.00
2019-06-08T22:13:37.226Z,13.90
2019-06-08T22:16:08.288Z,13.90
2019-06-08T22:18:40.296Z,13.90
2019-06-08T22:21:10.924Z,13.90
2019-06-08T22:23:41.583Z,13.80
2019-06-08T22:26:12.022Z,13.80
2019-06-08T22:28:42.360Z,13.80
2019-06-08T22:31:13.688Z,13.80
2019-06-08T22:33:44.418Z,13.80
2019-06-08T22:36:14.818Z,13.70
2019-06-08T22:38:47.612Z,13.60
2019-06-08T22:41:17.413Z,13.50
2019-06-08T22:43:48.263Z,13.50
2019-06-08T22:46:19.016Z,13.40
2019-06-08T22:48:49.620Z,13.40
2019-06-08T22:51:20.267Z,13.20
2019-06-08T22:53:51.058Z,13.10
2019-06-08T22:56:21.443Z,13.00
2019-06-08T22:58:54.243Z,12.90
2019-06-08T23:01:24.193Z,12.90
2019-06-08T23:03:56.154Z,12.90
2019-06-08T23:06:28.054Z,12.80
2019-06-08T23:09:01.441Z,12.60
2019-06-08T23:11:32.633Z,12.50
2019-06-08T23:14:05.007Z,12.50
2019-06-08T23:16:34.874Z,12.40
2019-06-08T23:19:07.842Z,12.40
2019-06-08T23:21:38.246Z,12.40
2019-06-08T23:24:09.142Z,12.40
2019-06-08T23:26:39.320Z,12.40
2019-06-08T23:29:09.922Z,12.40
2019-06-08T23:31:41.836Z,12.30
2019-06-08T23:34:12.095Z,12.30
2019-06-08T23:36:55.345Z,12.20
2019-06-08T23:39:14.812Z,12.30
2019-06-08T23:41:45.258Z,12.30
2019-06-08T23:44:17.610Z,12.30
2019-06-08T23:46:50.510Z,12.30
2019-06-08T23:49:21.425Z,12.20
2019-06-08T23:51:51.636Z,12.20
2019-06-08T23:54:22.308Z,12.10
2019-06-08T23:56:52.903Z,12.10
2019-06-08T23:59:23.195Z,12.10
